Time;durP1;ratioP1;P1;durP2;ratioP2;P2;SDS_P1;SDS_P2;PMS_P1;PMS_P2;Temp;Humidity;BMP_temperature;BMP_pressure;BME280_temperature;BME280_humidity;BME280_pressure;Samples;Min_cycle;Max_cycle;Signal;HPM_P1;HPM_P2
2023/07/03 00:02:17;;;;;;;30.00;12.48;;;;;;;20.37;51.81;99567.81;4859931;29;20528;-86
2023/07/03 00:04:48;;;;;;;25.13;12.60;;;;;;;20.39;52.01;99564.91;4878818;29;20048;-87
2023/07/03 00:07:15;;;;;;;30.10;13.10;;;;;;;20.35;53.24;99563.66;4860417;29;20049;-87
2023/07/03 00:09:42;;;;;;;32.95;14.27;;;;;;;20.31;53.31;99565.13;4871044;29;20156;-87
2023/07/03 00:12:11;;;;;;;30.38;13.43;;;;;;;20.32;53.41;99566.75;4875449;29;20148;-87
2023/07/03 00:14:38;;;;;;;37.20;14.40;;;;;;;20.30;53.56;99564.28;4859224;29;20115;-87
2023/07/03 00:17:07;;;;;;;31.90;13.52;;;;;;;20.32;53.58;99562.19;4878164;29;20433;-88
2023/07/03 00:19:34;;;;;;;25.73;13.35;;;;;;;20.29;53.25;99562.63;4883381;29;20055;-87
2023/07/03 00:22:02;;;;;;;28.70;12.68;;;;;;;20.30;53.55;99566.13;4861813;29;20048;-87
2023/07/03 00:24:30;;;;;;;30.30;13.45;;;;;;;20.28;53.72;99563.66;4888157;29;20052;-88
2023/07/03 00:26:57;;;;;;;30.77;12.93;;;;;;;20.30;53.69;99561.59;4877268;29;20100;-87
2023/07/03 00:29:24;;;;;;;30.60;13.10;;;;;;;20.29;53.10;99554.53;4876138;29;20044;-88
2023/07/03 00:31:51;;;;;;;33.00;13.55;;;;;;;20.29;53.29;99554.53;4875077;29;20060;-88
2023/07/03 00:34:18;;;;;;;29.15;13.27;;;;;;;20.29;53.35;99562.63;4897561;29;20564;-87
2023/07/03 00:36:47;;;;;;;29.60;13.02;;;;;;;20.33;53.53;99565.75;4875576;29;20049;-88
2023/07/03 00:39:14;;;;;;;28.27;13.40;;;;;;;20.32;53.50;99556.81;4874496;29;20061;-87
2023/07/03 00:41:42;;;;;;;36.08;13.32;;;;;;;20.35;53.78;99563.66;4873636;29;20049;-87
2023/07/03 00:44:12;;;;;;;27.65;13.40;;;;;;;20.35;53.56;99558.25;4869377;29;20397;-87
2023/07/03 00:46:39;;;;;;;29.52;13.00;;;;;;;20.35;53.37;99560.94;4861780;29;20100;-87
2023/07/03 00:49:07;;;;;;;31.90;13.48;;;;;;;20.31;53.58;99560.53;4849632;29;20051;-87
2023/07/03 00:51:34;;;;;;;27.75;12.35;;;;;;;20.30;53.37;99561.59;4870638;29;20425;-87
2023/07/03 00:54:00;;;;;;;28.90;12.98;;;;;;;20.29;53.21;99568.00;4882680;29;20100;-87
2023/07/03 00:56:28;;;;;;;26.38;12.93;;;;;;;20.26;52.99;99562.19;4876054;29;20044;-86
2023/07/03 00:58:55;;;;;;;26.85;12.38;;;;;;;20.26;52.81;99560.34;4860612;29;20067;-87
2023/07/03 01:01:25;;;;;;;30.65;13.82;;;;;;;20.23;52.54;99558.06;4898132;29;20127;-87
2023/07/03 01:04:00;;;;;;;26.33;12.60;;;;;;;20.23;52.38;99555.34;4878520;29;20060;-87
2023/07/03 01:06:32;;;;;;;31.83;13.13;;;;;;;20.20;52.75;99563.84;4871375;29;20120;-87
2023/07/03 01:09:00;;;;;;;30.58;13.40;;;;;;;20.17;52.63;99550.75;4898364;29;20543;-87
2023/07/03 01:11:26;;;;;;;30.63;12.55;;;;;;;20.18;52.59;99565.94;4879089;29;20405;-86
2023/07/03 01:13:57;;;;;;;29.05;12.90;;;;;;;20.13;52.92;99560.31;4863582;29;20044;-87
2023/07/03 01:16:26;;;;;;;32.00;13.48;;;;;;;20.12;52.86;99562.19;4865668;29;20045;-87
2023/07/03 01:18:53;;;;;;;28.85;12.82;;;;;;;20.14;53.10;99561.97;4880616;29;20064;-86
2023/07/03 01:21:24;;;;;;;31.95;12.60;;;;;;;20.08;53.41;99562.78;4874494;29;20048;-86
2023/07/03 01:24:13;;;;;;;34.63;14.38;;;;;;;20.00;53.48;99558.44;4867280;29;20064;-87
2023/07/03 01:26:42;;;;;;;31.25;14.38;;;;;;;20.04;53.28;99562.34;4877796;29;20532;-87
2023/07/03 01:29:18;;;;;;;30.02;13.63;;;;;;;20.04;53.24;99561.53;4862064;29;20400;-86
2023/07/03 01:31:46;;;;;;;34.45;14.77;;;;;;;20.01;53.22;99561.94;4851089;29;20055;-87
2023/07/03 01:34:13;;;;;;;33.22;14.57;;;;;;;20.03;53.03;99560.72;4858783;29;20493;-86
2023/07/03 01:36:41;;;;;;;32.58;14.48;;;;;;;20.04;53.00;99558.84;4881992;29;20052;-87
2023/07/03 01:39:08;;;;;;;38.22;14.25;;;;;;;19.99;52.93;99556.75;4870025;29;20068;-87
2023/07/03 01:41:35;;;;;;;29.83;14.05;;;;;;;20.02;53.19;99558.19;4862337;29;22575;-86
2023/07/03 01:44:02;;;;;;;32.55;14.50;;;;;;;19.96;53.11;99549.06;4848164;29;20051;-86
2023/07/03 01:46:29;;;;;;;34.03;15.02;;;;;;;19.97;53.00;99550.72;4893412;29;20404;-86
2023/07/03 01:48:56;;;;;;;29.15;13.85;;;;;;;19.94;53.31;99551.13;4846557;29;20064;-86
2023/07/03 01:51:30;;;;;;;34.35;13.50;;;;;;;19.89;53.08;99553.63;4893827;29;20045;-86
2023/07/03 01:54:09;;;;;;;29.55;13.73;;;;;;;19.84;53.14;99546.13;4862748;29;20124;-86
2023/07/03 01:56:39;;;;;;;32.13;14.90;;;;;;;19.90;52.79;99539.13;4870778;29;20469;-86
2023/07/03 01:59:13;;;;;;;34.45;13.90;;;;;;;19.86;52.87;99541.38;4881084;29;20103;-86
2023/07/03 02:01:56;;;;;;;30.58;13.77;;;;;;;19.78;52.60;99546.13;4864824;29;20104;-86
2023/07/03 02:04:37;;;;;;;36.38;14.25;;;;;;;19.77;52.70;99541.75;4874895;29;20048;-87
2023/07/03 02:07:05;;;;;;;33.92;14.75;;;;;;;19.89;52.33;99540.97;4896633;29;20041;-86
2023/07/03 02:09:32;;;;;;;29.55;13.93;;;;;;;19.86;52.23;99541.38;4890164;29;20053;-86
2023/07/03 02:12:04;;;;;;;35.25;15.50;;;;;;;19.86;52.36;99545.94;4870285;29;20063;-86
2023/07/03 02:14:34;;;;;;;33.97;15.60;;;;;;;19.83;52.61;99543.66;4891385;29;20048;-87
2023/07/03 02:17:03;;;;;;;34.78;14.82;;;;;;;19.79;52.63;99547.78;4874229;29;20135;-87
2023/07/03 02:19:32;;;;;;;29.65;14.77;;;;;;;19.74;52.60;99540.28;4853779;29;20135;-87
2023/07/03 02:21:59;;;;;;;34.35;14.35;;;;;;;19.73;52.72;99534.09;4879015;29;20139;-87
2023/07/03 02:24:27;;;;;;;37.90;15.27;;;;;;;19.72;52.53;99542.38;4891276;29;20052;-87
2023/07/03 02:26:54;;;;;;;32.15;15.40;;;;;;;19.70;52.77;99536.38;4880141;29;20572;-86
2023/07/03 02:29:20;;;;;;;34.70;15.07;;;;;;;19.71;52.71;99544.22;4884037;29;20421;-87
2023/07/03 02:31:47;;;;;;;31.90;14.50;;;;;;;19.73;52.57;99535.94;4868367;29;20120;-86
2023/07/03 02:34:14;;;;;;;33.58;14.10;;;;;;;19.68;52.67;99531.16;4870625;29;20063;-86
2023/07/03 02:36:41;;;;;;;33.20;14.55;;;;;;;19.73;52.71;99541.34;4846789;29;20449;-88
2023/07/03 02:39:09;;;;;;;39.50;15.65;;;;;;;19.71;52.88;99540.72;4868104;29;20079;-87
2023/07/03 02:41:36;;;;;;;35.42;14.18;;;;;;;19.70;53.13;99550.66;4894892;29;20048;-86
2023/07/03 02:44:03;;;;;;;35.42;14.73;;;;;;;19.67;52.78;99539.47;4863280;29;20052;-87
2023/07/03 02:46:32;;;;;;;32.22;14.30;;;;;;;19.63;53.35;99541.69;4877215;29;20075;-86
2023/07/03 02:48:59;;;;;;;37.33;15.88;;;;;;;19.64;53.27;99539.81;4850254;29;20108;-87
2023/07/03 02:51:27;;;;;;;33.47;14.82;;;;;;;19.60;53.22;99539.41;4885914;29;20053;-86
2023/07/03 02:53:58;;;;;;;36.22;15.13;;;;;;;19.56;53.11;99540.81;4873671;29;20053;-87
2023/07/03 02:56:25;;;;;;;32.95;15.05;;;;;;;19.57;53.10;99544.38;4875202;29;20438;-87
2023/07/03 02:58:52;;;;;;;31.52;13.77;;;;;;;19.61;53.25;99548.31;4870294;29;20053;-87
2023/07/03 03:01:24;;;;;;;38.85;15.27;;;;;;;19.56;53.25;99543.53;4879498;29;20059;-87
2023/07/03 03:03:52;;;;;;;35.15;14.45;;;;;;;19.58;53.49;99546.03;4896721;29;20055;-86
2023/07/03 03:06:19;;;;;;;34.63;14.43;;;;;;;19.61;53.36;99543.75;4874822;29;20185;-86
2023/07/03 03:08:48;;;;;;;37.22;15.48;;;;;;;19.64;53.48;99537.97;4876048;29;20056;-86
2023/07/03 03:11:16;;;;;;;30.92;14.27;;;;;;;19.59;53.06;99536.91;4862192;29;20132;-87
2023/07/03 03:13:45;;;;;;;32.85;14.77;;;;;;;19.57;53.01;99541.69;4873386;29;20055;-88
2023/07/03 03:16:12;;;;;;;35.72;15.27;;;;;;;19.59;52.84;99539.59;4860963;29;20115;-86
2023/07/03 03:18:39;;;;;;;33.65;15.02;;;;;;;19.59;53.04;99536.91;4879722;29;20170;-86
2023/07/03 03:21:05;;;;;;;34.17;14.98;;;;;;;19.59;53.00;99537.75;4847499;29;20060;-84
2023/07/03 03:23:32;;;;;;;36.80;14.35;;;;;;;19.58;53.28;99540.63;4902104;29;20140;-84
2023/07/03 03:25:59;;;;;;;33.25;15.23;;;;;;;19.56;53.43;99540.81;4890035;29;20500;-84
2023/07/03 03:28:26;;;;;;;33.03;14.20;;;;;;;19.60;53.59;99541.28;4886692;29;20056;-84
2023/07/03 03:30:53;;;;;;;32.00;15.43;;;;;;;19.60;53.63;99538.56;4863440;29;20071;-84
2023/07/03 03:33:20;;;;;;;30.30;14.77;;;;;;;19.60;53.57;99539.41;4875847;29;20058;-84
2023/07/03 03:35:47;;;;;;;34.53;14.60;;;;;;;19.60;53.30;99544.78;4883818;29;20068;-84
2023/07/03 03:38:15;;;;;;;35.72;15.18;;;;;;;19.60;53.63;99533.19;4858061;29;20056;-84
2023/07/03 03:40:53;;;;;;;32.75;14.15;;;;;;;19.50;54.29;99534.38;4886610;29;20080;-84
2023/07/03 03:43:22;;;;;;;34.05;15.15;;;;;;;19.59;53.70;99535.06;4882924;29;20129;-84
2023/07/03 03:45:59;;;;;;;32.58;15.52;;;;;;;19.47;54.30;99539.34;4877222;29;20056;-85
2023/07/03 03:48:29;;;;;;;38.97;15.95;;;;;;;19.58;53.93;99546.84;4870852;29;20178;-84
2023/07/03 03:51:00;;;;;;;30.35;13.68;;;;;;;19.52;54.14;99545.78;4871163;29;20064;-84
2023/07/03 03:53:35;;;;;;;35.58;15.43;;;;;;;19.52;54.16;99553.88;4839784;29;20081;-85
2023/07/03 03:56:02;;;;;;;33.38;15.30;;;;;;;19.49;54.49;99548.91;4872581;29;20056;-82
2023/07/03 03:58:33;;;;;;;39.63;14.77;;;;;;;19.48;54.31;99551.78;4872067;29;20147;-84
2023/07/03 04:01:00;;;;;;;30.75;15.25;;;;;;;19.45;54.03;99555.69;4870212;29;20124;-83
2023/07/03 04:03:28;;;;;;;35.17;14.98;;;;;;;19.48;53.94;99562.56;4897087;29;20044;-84
2023/07/03 04:05:55;;;;;;;39.75;15.18;;;;;;;19.51;54.00;99564.84;4873896;29;20085;-83
2023/07/03 04:08:21;;;;;;;34.33;14.65;;;;;;;19.51;53.89;99559.44;4873871;29;20049;-83
2023/07/03 04:10:48;;;;;;;41.00;14.93;;;;;;;19.48;54.35;99560.69;4868190;29;20488;-83
2023/07/03 04:13:16;;;;;;;39.33;14.23;;;;;;;19.51;54.11;99565.69;4899926;29;20076;-84
2023/07/03 04:15:51;;;;;;;34.78;15.27;;;;;;;19.44;54.23;99562.13;4874070;29;20055;-81
2023/07/03 04:18:19;;;;;;;33.63;14.90;;;;;;;19.49;53.99;99566.94;4888233;29;20056;-84
2023/07/03 04:20:46;;;;;;;37.00;14.93;;;;;;;19.49;53.92;99566.94;4880613;29;20053;-85
2023/07/03 04:23:13;;;;;;;34.72;15.27;;;;;;;19.51;54.14;99565.69;4858670;29;20059;-84
2023/07/03 04:25:42;;;;;;;34.75;15.27;;;;;;;19.52;53.93;99558.44;4887324;29;20123;-83
2023/07/03 04:28:09;;;;;;;40.72;15.40;;;;;;;19.53;54.30;99569.00;4870602;29;20052;-83
2023/07/03 04:30:36;;;;;;;38.72;15.00;;;;;;;19.52;54.48;99574.59;4872331;29;20044;-84
2023/07/03 04:33:03;;;;;;;37.72;15.93;;;;;;;19.52;54.36;99577.28;4872854;29;20049;-83
2023/07/03 04:35:30;;;;;;;38.50;15.35;;;;;;;19.48;54.54;99573.31;4865376;29;20083;-84
2023/07/03 04:37:57;;;;;;;34.63;14.93;;;;;;;19.51;54.70;99581.00;4874346;29;20048;-83
2023/07/03 04:40:24;;;;;;;32.47;14.05;;;;;;;19.49;54.71;99578.53;4873784;29;20047;-84
2023/07/03 04:42:51;;;;;;;33.35;15.00;;;;;;;19.54;54.95;99583.31;4890004;29;20067;-84
2023/07/03 04:45:17;;;;;;;36.53;15.05;;;;;;;19.58;55.04;99589.13;4865322;29;20521;-88
2023/07/03 04:47:44;;;;;;;34.42;14.75;;;;;;;19.55;55.11;99589.53;4888415;29;20065;-89
2023/07/03 04:50:16;;;;;;;34.17;14.82;;;;;;;19.59;55.19;99585.38;4881436;29;20048;-88
2023/07/03 04:52:44;;;;;;;35.53;15.20;;;;;;;19.63;54.96;99590.16;4891578;29;20053;-87
2023/07/03 04:55:11;;;;;;;33.95;14.55;;;;;;;19.64;55.53;99591.00;4871545;29;20068;-88
2023/07/03 04:57:40;;;;;;;33.88;13.63;;;;;;;19.68;55.64;99595.00;4877682;29;20049;-88
2023/07/03 05:00:16;;;;;;;34.55;14.80;;;;;;;19.67;56.56;99594.16;4889507;29;20498;-89
2023/07/03 05:02:48;;;;;;;36.97;14.25;;;;;;;19.67;56.17;99613.03;4877175;29;20045;-88
2023/07/03 05:05:16;;;;;;;34.53;15.13;;;;;;;19.71;55.79;99611.56;4897249;29;20398;-86
2023/07/03 05:07:44;;;;;;;33.70;15.43;;;;;;;19.72;55.74;99602.47;4877525;29;20425;-86
2023/07/03 05:10:13;;;;;;;36.85;14.80;;;;;;;19.74;55.98;99596.88;4886972;29;20048;-86
2023/07/03 05:12:40;;;;;;;34.28;14.15;;;;;;;19.78;55.81;99600.84;4873735;29;20055;-87
2023/07/03 05:15:08;;;;;;;31.92;14.35;;;;;;;19.79;56.44;99596.28;4892641;29;20056;-86
2023/07/03 05:17:38;;;;;;;30.17;12.98;;;;;;;19.84;56.55;99601.88;4894066;29;20143;-88
2023/07/03 05:20:11;;;;;;;36.17;14.93;;;;;;;19.82;56.75;99596.72;4874805;29;20558;-87
2023/07/03 05:22:38;;;;;;;;;;;;;;;19.68;57.99;99592.31;4860846;29;20048;-87
2023/07/03 05:25:05;;;;;;;32.72;13.75;;;;;;;19.88;56.60;99601.28;4874738;29;19924;-87
2023/07/03 05:27:33;;;;;;;37.30;14.50;;;;;;;19.93;56.56;99601.50;4872855;29;20049;-87
2023/07/03 05:30:00;;;;;;;31.30;14.43;;;;;;;19.99;56.64;99602.56;4854716;29;20057;-88
2023/07/03 05:32:27;;;;;;;32.80;13.55;;;;;;;20.06;56.64;99613.38;4874300;29;20453;-88
2023/07/03 05:34:54;;;;;;;35.30;14.43;;;;;;;20.09;56.48;99602.19;4874304;29;20113;-87
2023/07/03 05:37:21;;;;;;;36.10;13.43;;;;;;;20.11;56.12;99597.44;4873817;29;20064;-88
2023/07/03 05:39:49;;;;;;;33.95;14.02;;;;;;;20.13;56.18;99603.44;4895298;29;20805;-87
2023/07/03 05:42:16;;;;;;;36.58;14.77;;;;;;;20.20;56.36;99608.84;4860644;29;20041;-88
2023/07/03 05:44:43;;;;;;;40.40;13.52;;;;;;;20.24;56.71;99608.22;4890235;29;20056;-87
2023/07/03 05:47:11;;;;;;;37.58;14.27;;;;;;;20.28;56.10;99598.72;4890813;29;20053;-87
2023/07/03 05:49:38;;;;;;;30.13;13.13;;;;;;;20.32;55.59;99616.13;4858360;29;20057;-87
2023/07/03 05:52:05;;;;;;;38.30;13.65;;;;;;;20.35;56.07;99614.88;4859718;29;20136;-87
2023/07/03 05:54:32;;;;;;;36.00;13.23;;;;;;;20.37;55.73;99610.94;4881211;29;20068;-87
2023/07/03 05:57:01;;;;;;;36.88;12.77;;;;;;;20.42;54.82;99614.91;4871917;29;20044;-87
2023/07/03 05:59:28;;;;;;;34.42;12.52;;;;;;;20.44;55.16;99607.44;4871139;29;20068;-88
2023/07/03 06:01:56;;;;;;;34.30;13.07;;;;;;;20.48;54.73;99614.06;4890964;29;20044;-88
2023/07/03 06:04:23;;;;;;;36.13;11.52;;;;;;;20.52;54.68;99612.63;4869846;29;20189;-87
2023/07/03 06:06:57;;;;;;;31.30;11.45;;;;;;;20.52;53.79;99613.47;4873930;29;20055;-88
2023/07/03 06:09:25;;;;;;;29.98;11.57;;;;;;;20.57;53.81;99621.81;4894413;29;20055;-87
2023/07/03 06:11:51;;;;;;;30.38;11.30;;;;;;;20.61;53.23;99633.03;4875316;29;20057;-88
2023/07/03 06:14:19;;;;;;;30.42;11.13;;;;;;;20.64;53.28;99623.69;4862227;29;20043;-88
2023/07/03 06:16:48;;;;;;;29.92;11.90;;;;;;;20.64;53.13;99637.19;4875666;29;20648;-88
2023/07/03 06:19:16;;;;;;;29.38;11.20;;;;;;;20.66;52.88;99637.78;4881631;29;20524;-88
2023/07/03 06:21:43;;;;;;;30.33;11.48;;;;;;;20.67;53.05;99642.16;4894149;29;20080;-88
2023/07/03 06:24:12;;;;;;;39.58;11.77;;;;;;;20.69;52.85;99638.22;4895463;29;20052;-86
2023/07/03 06:26:40;;;;;;;36.78;11.48;;;;;;;20.70;52.94;99637.16;4874654;29;20052;-88
2023/07/03 06:29:07;;;;;;;34.75;11.77;;;;;;;20.72;52.60;99637.78;4884764;29;20052;-88
2023/07/03 06:31:34;;;;;;;30.70;10.73;;;;;;;20.74;52.54;99637.59;4858605;29;20132;-88
2023/07/03 06:34:03;;;;;;;25.42;11.40;;;;;;;20.77;52.34;99648.81;4862758;29;20052;-88
2023/07/03 06:36:31;;;;;;;36.42;11.57;;;;;;;20.79;52.09;99643.22;4862929;29;20074;-88
2023/07/03 06:38:59;;;;;;;38.13;10.32;;;;;;;20.80;52.07;99659.19;4884386;29;20095;-87
2023/07/03 06:41:29;;;;;;;31.02;11.48;;;;;;;20.81;51.76;99654.59;4888564;29;20496;-87
2023/07/03 06:43:56;;;;;;;39.28;11.80;;;;;;;20.80;51.91;99652.94;4863375;29;20057;-88
2023/07/03 06:46:24;;;;;;;27.02;10.45;;;;;;;20.83;51.70;99652.53;4887010;29;20697;-87
2023/07/03 06:48:54;;;;;;;29.52;10.55;;;;;;;20.84;51.47;99654.22;4893287;29;20059;-88
2023/07/03 06:51:21;;;;;;;27.23;10.38;;;;;;;20.84;51.25;99658.75;4886356;29;20064;-88
2023/07/03 06:53:48;;;;;;;30.92;10.45;;;;;;;20.85;51.28;99663.97;4876287;29;20104;-87
2023/07/03 06:56:15;;;;;;;26.95;9.82;;;;;;;20.86;51.27;99670.19;4883689;29;20043;-87
2023/07/03 06:58:41;;;;;;;21.38;9.10;;;;;;;20.87;51.08;99661.06;4876360;29;20068;-87
2023/07/03 07:01:12;;;;;;;28.00;8.93;;;;;;;20.86;50.45;99673.72;4868756;29;20114;-87
2023/07/03 07:03:39;;;;;;;36.78;11.40;;;;;;;20.87;50.60;99678.09;4892080;29;20056;-87
2023/07/03 07:06:15;;;;;;;28.13;9.88;;;;;;;20.85;50.12;99682.03;4873249;29;20057;-88
2023/07/03 07:08:42;;;;;;;23.88;7.60;;;;;;;20.88;50.84;99682.44;4884304;29;20127;-88
2023/07/03 07:11:11;;;;;;;26.52;9.32;;;;;;;20.91;50.35;99679.31;4885842;29;20048;-88
2023/07/03 07:13:39;;;;;;;28.15;9.35;;;;;;;20.92;50.47;99693.66;4878489;29;20119;-88
2023/07/03 07:16:27;;;;;;;28.42;8.25;;;;;;;20.81;49.17;99692.38;4874420;29;20101;-87
2023/07/03 07:18:55;;;;;;;29.67;8.73;;;;;;;20.90;49.76;99690.34;4894390;29;20401;-87
2023/07/03 07:21:23;;;;;;;26.35;8.75;;;;;;;20.94;50.01;99699.66;4849454;29;20052;-88
2023/07/03 07:23:55;;;;;;;32.45;9.13;;;;;;;20.92;49.31;99689.09;4866685;29;20045;-88
2023/07/03 07:26:24;;;;;;;25.38;8.45;;;;;;;20.94;49.79;99691.56;4864030;29;20049;-88
2023/07/03 07:28:51;;;;;;;24.25;8.40;;;;;;;20.95;49.67;99687.84;4873250;29;20700;-87
2023/07/03 07:31:22;;;;;;;41.75;9.82;;;;;;;20.92;48.67;99690.97;4883955;29;20056;-87
2023/07/03 07:33:49;;;;;;;23.98;7.80;;;;;;;20.98;49.54;99690.94;4885723;29;20072;-88
2023/07/03 07:36:19;;;;;;;24.15;7.93;;;;;;;21.04;49.44;99694.72;4877320;29;20095;-87
2023/07/03 07:38:48;;;;;;;26.55;8.40;;;;;;;21.06;48.97;99683.69;4873277;29;20037;-87
2023/07/03 07:41:15;;;;;;;33.28;8.60;;;;;;;21.12;49.17;99677.47;4890671;29;20060;-87
2023/07/03 07:43:42;;;;;;;30.92;8.23;;;;;;;21.08;49.14;99695.13;4857500;29;20045;-88
2023/07/03 07:46:09;;;;;;;27.75;8.88;;;;;;;21.13;48.94;99695.31;4851416;29;20438;-88
2023/07/03 07:48:36;;;;;;;31.08;8.23;;;;;;;21.15;49.09;99702.19;4885888;29;20061;-88
2023/07/03 07:51:07;;;;;;;24.35;8.07;;;;;;;21.18;49.08;99693.66;4871820;29;20587;-88
2023/07/03 07:53:34;;;;;;;21.67;7.40;;;;;;;21.24;49.24;99690.13;4864934;29;20159;-88
2023/07/03 07:56:01;;;;;;;23.13;7.30;;;;;;;21.29;48.76;99684.09;4874304;29;20049;-89
2023/07/03 07:58:28;;;;;;;29.75;8.88;;;;;;;21.33;48.82;99677.25;4881396;29;20047;-88
2023/07/03 08:00:57;;;;;;;22.48;7.43;;;;;;;21.43;48.32;99679.53;4871873;29;20067;-87
2023/07/03 08:03:25;;;;;;;24.60;8.13;;;;;;;21.44;48.22;99673.91;4889122;29;20131;-88
2023/07/03 08:06:03;;;;;;;28.30;7.40;;;;;;;21.43;47.98;99680.38;4901648;29;20103;-87
2023/07/03 08:08:30;;;;;;;26.70;8.13;;;;;;;21.43;48.01;99676.84;4872418;29;20669;-88
2023/07/03 08:11:00;;;;;;;22.25;7.53;;;;;;;21.43;48.24;99680.38;4876631;29;20041;-88
2023/07/03 08:13:29;;;;;;;23.17;7.10;;;;;;;21.43;48.43;99680.38;4855458;29;20119;-89
2023/07/03 08:15:55;;;;;;;29.45;8.57;;;;;;;21.49;48.11;99686.78;4872340;29;20048;-88
2023/07/03 08:18:23;;;;;;;26.55;7.93;;;;;;;21.46;48.08;99679.13;4888838;29;20048;-89
2023/07/03 08:20:50;;;;;;;27.98;8.23;;;;;;;21.46;48.55;99679.94;4889537;29;20037;-86
2023/07/03 08:23:17;;;;;;;26.98;8.40;;;;;;;21.49;48.97;99672.47;4871129;29;20052;-86
2023/07/03 08:25:51;;;;;;;28.48;7.75;;;;;;;21.49;48.65;99689.50;4888816;29;20131;-87
2023/07/03 08:28:19;;;;;;;23.73;8.10;;;;;;;21.53;48.31;99685.34;4854999;29;20819;-87
2023/07/03 08:30:46;;;;;;;23.80;8.27;;;;;;;21.58;48.36;99690.13;4906399;29;20051;-87
2023/07/03 08:33:14;;;;;;;23.50;7.97;;;;;;;21.55;48.66;99683.28;4866269;29;20406;-87
2023/07/03 08:35:41;;;;;;;24.60;7.47;;;;;;;21.56;48.73;99686.78;4854357;29;20116;-87
2023/07/03 08:38:11;;;;;;;21.40;7.50;;;;;;;21.53;48.42;99679.13;4872300;29;20052;-87
2023/07/03 08:40:38;;;;;;;18.63;7.00;;;;;;;21.51;48.24;99687.41;4884503;29;20053;-87
2023/07/03 08:43:05;;;;;;;23.58;7.05;;;;;;;21.49;47.93;99673.28;4886258;29;20428;-87
2023/07/03 08:45:35;;;;;;;24.90;7.50;;;;;;;21.48;47.81;99668.13;4893963;29;20043;-88
2023/07/03 08:48:06;;;;;;;25.48;7.13;;;;;;;21.44;47.80;99675.78;4869279;29;20131;-87
2023/07/03 08:50:33;;;;;;;21.95;6.32;;;;;;;21.54;48.25;99678.06;4884687;29;20053;-87
2023/07/03 08:53:20;;;;;;;18.73;6.10;;;;;;;21.61;48.16;99676.19;4872206;29;20075;-88
2023/07/03 08:56:01;;;;;;;19.17;6.43;;;;;;;21.71;47.93;99654.94;4869207;29;20473;-87
2023/07/03 08:58:28;;;;;;;19.55;7.15;;;;;;;21.78;47.34;99679.25;4881463;29;20969;-87
2023/07/03 09:01:21;;;;;;;26.88;7.60;;;;;;;21.79;47.26;99683.63;4875258;29;20051;-87
2023/07/03 09:04:07;;;;;;;14.90;6.30;;;;;;;21.90;47.31;99674.84;4879699;29;20051;-88
2023/07/03 09:06:43;;;;;;;18.38;6.03;;;;;;;21.97;47.03;99674.81;4885690;29;20045;-88
2023/07/03 09:09:35;;;;;;;15.57;5.85;;;;;;;21.94;46.19;99676.06;4903941;29;20119;-88
2023/07/03 09:12:08;;;;;;;17.15;5.93;;;;;;;22.03;46.50;99673.97;4874499;29;20087;-88
2023/07/03 09:14:42;;;;;;;17.20;6.13;;;;;;;22.03;46.17;99673.97;4886577;29;20077;-87
2023/07/03 09:17:10;;;;;;;21.00;5.95;;;;;;;22.05;46.64;99664.59;4865268;29;20400;-87
2023/07/03 09:19:39;;;;;;;21.52;6.18;;;;;;;22.07;46.55;99670.63;4880068;29;20123;-87
2023/07/03 09:22:10;;;;;;;15.48;5.70;;;;;;;22.14;46.58;99670.59;4860560;29;20623;-86
2023/07/03 09:24:39;;;;;;;14.55;5.60;;;;;;;22.20;46.63;99677.03;4869806;29;20400;-87
2023/07/03 09:27:16;;;;;;;19.58;5.95;;;;;;;22.23;46.69;99673.91;4856493;29;20056;-86
2023/07/03 09:29:43;;;;;;;17.08;4.97;;;;;;;22.23;46.31;99685.53;4890971;29;20068;-87
2023/07/03 09:32:12;;;;;;;13.57;4.93;;;;;;;22.22;45.37;99697.41;4859957;29;20056;-87
2023/07/03 09:35:06;;;;;;;13.88;4.13;;;;;;;22.09;45.30;99687.47;4892788;29;20049;-88
2023/07/03 09:37:37;;;;;;;17.35;4.20;;;;;;;22.19;45.45;99703.25;4872968;29;20887;-87
2023/07/03 09:40:09;;;;;;;12.43;4.22;;;;;;;22.20;45.38;99694.09;4889801;29;20535;-88
2023/07/03 09:42:36;;;;;;;13.20;4.38;;;;;;;22.22;44.72;99699.31;4892402;29;20139;-88
2023/07/03 09:45:12;;;;;;;14.25;3.83;;;;;;;22.13;43.55;99693.25;4871447;29;20057;-87
2023/07/03 09:47:41;;;;;;;10.77;4.20;;;;;;;22.18;44.99;99704.25;4886219;29;20145;-88
2023/07/03 09:50:09;;;;;;;11.40;3.72;;;;;;;22.19;45.02;99694.28;4877008;29;20534;-88
2023/07/03 09:52:45;;;;;;;10.57;3.88;;;;;;;22.19;45.11;99687.03;4881072;29;20052;-87
2023/07/03 09:55:32;;;;;;;8.73;3.63;;;;;;;22.15;44.76;99696.59;4891649;29;20767;-88
2023/07/03 09:57:59;;;;;;;12.38;3.85;;;;;;;22.15;44.81;99680.34;4874390;29;20052;-88
2023/07/03 10:00:26;;;;;;;13.02;4.00;;;;;;;22.16;44.62;99687.44;4886589;29;20049;-88
2023/07/03 10:02:57;;;;;;;6.85;3.13;;;;;;;22.14;44.67;99696.81;4874201;29;20052;-86
2023/07/03 10:05:32;;;;;;;13.05;3.60;;;;;;;22.20;43.75;99704.09;4857882;29;20156;-87
2023/07/03 10:08:06;;;;;;;8.35;3.05;;;;;;;22.09;44.34;99714.50;4870970;29;20044;-88
2023/07/03 10:10:34;;;;;;;11.75;3.63;;;;;;;22.09;44.64;99700.16;4863185;29;20043;-88
2023/07/03 10:13:29;;;;;;;10.05;3.03;;;;;;;22.10;44.86;99701.81;4844743;29;20123;-88
2023/07/03 10:15:56;;;;;;;10.05;3.22;;;;;;;22.10;44.87;99718.84;4879349;29;20068;-86
2023/07/03 10:18:28;;;;;;;10.70;3.10;;;;;;;22.14;44.70;99724.69;4871676;29;20040;-88
2023/07/03 10:20:55;;;;;;;13.02;3.03;;;;;;;22.15;44.74;99733.63;4894523;29;20041;-88
2023/07/03 10:23:25;;;;;;;12.40;3.65;;;;;;;22.17;44.69;99728.84;4884716;29;20123;-87
2023/07/03 10:25:56;;;;;;;9.85;2.92;;;;;;;22.16;45.08;99736.13;4887308;29;20052;-87
2023/07/03 10:28:26;;;;;;;7.07;2.63;;;;;;;22.13;44.87;99750.03;4874173;29;20433;-88
2023/07/03 10:30:58;;;;;;;10.68;3.40;;;;;;;22.03;44.88;99745.13;4892238;29;20049;-88
2023/07/03 10:33:30;;;;;;;7.75;3.03;;;;;;;22.07;45.10;99740.09;4873467;29;20519;-87
2023/07/03 10:35:57;;;;;;;11.95;3.65;;;;;;;22.06;45.54;99744.69;4885340;29;20116;-88
2023/07/03 10:38:34;;;;;;;8.30;3.65;;;;;;;22.02;45.27;99742.59;4877902;29;20052;-87
2023/07/03 10:41:23;;;;;;;11.85;2.88;;;;;;;21.96;45.12;99751.56;4891747;29;20144;-86
2023/07/03 10:43:54;;;;;;;8.48;3.28;;;;;;;22.04;45.39;99757.56;4885788;29;20052;-87
2023/07/03 10:46:37;;;;;;;12.02;3.42;;;;;;;22.00;45.56;99750.91;4888376;29;20153;-88
2023/07/03 10:49:06;;;;;;;10.35;3.53;;;;;;;22.10;45.51;99747.78;4880712;29;20048;-87
2023/07/03 10:51:50;;;;;;;8.75;3.13;;;;;;;22.09;45.39;99740.72;4886428;29;20185;-86
2023/07/03 10:54:20;;;;;;;13.40;4.32;;;;;;;22.16;45.25;99746.94;4866944;29;20055;-88
2023/07/03 10:56:50;;;;;;;8.68;3.20;;;;;;;22.09;45.20;99738.00;4877129;29;20049;-87
2023/07/03 10:59:22;;;;;;;9.35;3.75;;;;;;;22.04;45.24;99743.22;4871170;29;20052;-88
2023/07/03 11:01:59;;;;;;;10.57;3.45;;;;;;;22.03;45.88;99737.00;4878977;29;20051;-88
2023/07/03 11:04:32;;;;;;;12.23;3.00;;;;;;;22.02;45.56;99742.59;4877494;29;20101;-88
2023/07/03 11:07:25;;;;;;;11.30;3.00;;;;;;;21.95;45.74;99741.78;4890053;29;20068;-88
2023/07/03 11:10:13;;;;;;;7.38;2.65;;;;;;;21.95;45.57;99737.22;4877453;29;20155;-88
2023/07/03 11:12:48;;;;;;;8.73;2.80;;;;;;;22.02;45.94;99734.50;4870974;29;20048;-88
2023/07/03 11:15:22;;;;;;;11.20;3.20;;;;;;;22.08;45.67;99728.22;4889865;29;20064;-88
2023/07/03 11:18:00;;;;;;;14.43;2.83;;;;;;;22.11;45.25;99720.53;4894157;29;20056;-88
2023/07/03 11:20:35;;;;;;;6.57;2.67;;;;;;;22.27;45.13;99729.25;4892894;29;20496;-88
2023/07/03 11:23:45;;;;;;;9.50;3.22;;;;;;;22.29;45.34;99719.03;4889984;29;20075;-89
2023/07/03 11:26:28;;;;;;;7.47;2.58;;;;;;;22.40;44.41;99718.34;4864915;29;20513;-88
2023/07/03 11:28:57;;;;;;;6.80;2.55;;;;;;;22.43;45.07;99714.38;4872805;29;20113;-89
2023/07/03 11:31:26;;;;;;;12.70;3.03;;;;;;;22.42;44.94;99710.03;4891298;29;20493;-88
2023/07/03 11:33:53;;;;;;;10.98;3.00;;;;;;;22.44;45.34;99705.22;4910545;29;20097;-88
2023/07/03 11:36:41;;;;;;;6.95;2.20;;;;;;;22.35;44.82;99707.34;4865993;29;20778;-88